Nearby METAR Reports

 

YSRI - Richmond (aus-Af, Australia
Distance from station: WSW 35km
Updated: 01/01/1970 10:00
NOT Current
unable to load YSRI data RC=404 Not Found
unable to load YSRI data RC=404 Not Found
 
YSSY - Sydney Intl Airp, Australia
Distance from station: S 47km
Updated: 22/05/2018 21:30
Clear
Clear
 Wind from W
Wind: W 11 km/h, Gust: 31 km/h
Temperature: 17°C
Dew Point: 8°C
Humidity: 56%
Barometer: 1021 hPa
Summary: Clear
Visibility: greater than 10 km
2018/05/22 11:30 YSSY 221130Z 27006G17KT CAVOK 17/08 Q1021
YWLM - Williamtown Arp, Australia
Distance from station: NE 104km
Updated: 22/05/2018 22:00
Clear
Clear
 Wind from NW
Wind: NW 11 km/h
Temperature: 12°C
Dew Point: 8°C
Humidity: 77%
Barometer: 1021 hPa
Clouds: Clear
Visibility: 10 km
2018/05/22 12:00 YWLM 221200Z AUTO 32006KT 9999 // NCD 12/08 Q1021
 
YSNW - Nowra (aus-Navy), Australia
Distance from station: SSW 168km
Updated: 22/05/2018 21:00
Partly cloudy
Partly cloudy
 Wind from NW
Wind: NW 13 km/h
Temperature: 14°C
Dew Point: 8°C
Humidity: 67%
Barometer: 1021 hPa
Clouds: Partly cloudy
Visibility: 10 km
Cloud details: Partly cloudy 2042 m
2018/05/22 11:00 YSNW 221100Z AUTO 32007KT 9999 // SCT067 14/08 Q1021
YMDG - Mudgee Arpt, Australia
Distance from station: NW 177km
Updated: 22/05/2018 21:00
Overcast
Overcast
 Wind from W
Wind: W 15 km/h
Temperature: 13°C
Dew Point: 8°C
Humidity: 72%
Barometer: 1024 hPa
Clouds: Overcast
Visibility: 10 km
Cloud details: Overcast 945 m
2018/05/22 11:00 YMDG 221100Z AUTO 27008KT 9999 // OVC031 13/08 Q1024
YTRE - Taree Airport, Australia
Distance from station: NE 224km
Updated: 22/05/2018 22:00
Clear
Clear
 Wind from calm
Wind: Calm
Temperature: 11°C
Dew Point: 9°C
Humidity: 88%
Barometer: 1020 hPa
Clouds: Clear
Visibility: 10 km
2018/05/22 12:00 YTRE 221200Z AUTO 00000KT 9999 // NCD 11/09 Q1020
 
YSCB - Canberra (civ/Mi, Australia
Distance from station: SW 265km
Updated: 22/05/2018 21:30
Clear
Clear
 Wind from N
Wind: N 9 km/h
Temperature: 10°C
Wind Chill: 9°C
Dew Point: 7°C
Humidity: 82%
Barometer: 1023 hPa
Clouds: Clear
Visibility: 10 km
2018/05/22 11:30 YSCB 221130Z AUTO 36005KT 320V020 9999 // NCD 10/07 Q1023
YSTW - Tamworth Airport, Australia
Distance from station: N 275km
Updated: 22/05/2018 22:00
Clear
Clear
 Wind from ENE
Wind: ENE 6 km/h
Temperature: 8°C
Dew Point: 1°C
Humidity: 62%
Barometer: 1023 hPa
Clouds: Clear
Visibility: 10 km
2018/05/22 12:00 YSTW 221200Z AUTO 06003KT 9999 // NCD 08/01 Q1023
YSDU - Dubbo, Australia
Distance from station: WNW 280km
Updated: 22/05/2018 21:30
Clear
Clear
 Wind from S
Wind: S 11 km/h
Temperature: 11°C
Dew Point: 6°C
Humidity: 72%
Barometer: 1025 hPa
Clouds: Clear
Visibility: 10 km
2018/05/22 11:30 YSDU 221130Z AUTO 19006KT 9999 // NCD 11/06 Q1025 RF00.0/000.0
 
YPMQ - Port Macquarie, Australia
Distance from station: NE 284km
Updated: 20/05/2018 21:56
NOT Current
Clear
Clear
 Wind from calm
Wind: Calm
Temperature: 7°C
Dew Point: 7°C
Humidity: 100%
Barometer: 1021 hPa
Clouds: Clear
Visibility: 10 km
2018/05/20 11:56 YPMQ 201156Z AUTO 00000KT 9999 // NCD 07/07 Q1021
YCBB - Coonabarabran, Australia
Distance from station: NW 300km
Updated: 22/05/2018 22:00
Clear
Clear
 Wind from SSW
Wind: SSW 24 km/h
Temperature: 11°C
Dew Point: 7°C
Humidity: 77%
Barometer: 1024 hPa
Clouds: Clear
Visibility: 10 km
2018/05/22 12:00 YCBB 221200Z AUTO 20013KT 9999 // NCD 11/07 Q1024